Terminal Aerodrome Forecast
Issued by NWS

Home | Current Version | Previous Version | Text Only | Print | Product List | Glossary On
Versions: 1 2 3 4 5 6 7 8 9 10 11 12 13 14 15 16
000
FTAK31 PAJN 282323
TAFAKT
TAF
PAKT 282323Z 2900/2924 14015G27KT 5SM RA BR SCT008 BKN012 OVC025
      WS020/16045KT
     FM290400 15015G22KT 5SM RA BR BKN015 OVC025 WS020/14040KT
     FM291000 15010G17KT 6SM -RA BR BKN015 OVC025 WS020/15030KT
     FM291500 15008KT 5SM -RA BR BKN015 OVC025 WS020/15025KT
     FM292200 15004KT 6SM -SHRA BR BKN025 OVC035
      AMD LTD TO CLD VIS AND WIND 2906/2915=

USA.gov is the U.S. government's official web portal to all federal, state and local government web resources and services.